• Join FlightAware (Why Join?)
  • Login
  • US Flag 
06:07AM EDT


 

Airport Tracker/Info


-or-


 

Live Flight TrackerFlight Track Log ✈ SWA3943 ✈ 24-Apr-2013 ✈ KMCO - KCMH

Flight Track Log - Related Links

Times and Time Zones

All times are in EDT time to prevent confusion due to time zone crossing. See the SWA3943 flight status page for this flight to view local times or setup timezone preferences in your user account.

Time Position Orientation Groundspeed Altitude Reporting Facility
EDT Latitude Longitude Course Direction KTS MPH feet Rate Location/Type
07:31PM 28.4000 -81.3000 350° North 159 183 800  Level Orlando TRACON
07:32PM 28.3667 -81.2833 156° South 205 236 2,800 2,400 Climbing Orlando TRACON
07:33PM 28.3333 -81.2167 120° Southeast 280 322 5,500 3,300 Climbing Orlando TRACON
07:34PM 28.3500 -81.1333 77° East 278 320 9,400 3,180 Climbing Orlando TRACON
07:35PM 28.3833 -81.0500 66° East 331 381 11,900 2,340 Climbing Orlando TRACON
07:37PM 29.0645 -81.3796 350° North  Level FlightAware Approximate
07:37PM 28.5486 -81.1036 344° North 386 444 16,400  Level Jacksonville Center
07:38PM 28.6453 -81.1564 334° Northwest 386 444 19,300 2,700 Climbing Jacksonville Center
07:39PM 28.7442 -81.2067 336° Northwest 381 438 21,900 2,580 Climbing Jacksonville Center
07:40PM 28.8489 -81.2547 338° Northwest 392 451 24,500 2,460 Climbing Jacksonville Center
07:41PM 28.9683 -81.2764 351° North 405 466 26,900 2,220 Climbing Jacksonville Center
07:42PM 29.0875 -81.2958 352° North 422 486 29,000 2,100 Climbing Jacksonville Center
07:43PM 29.2067 -81.3178 351° North 427 491 31,100 2,100 Climbing Jacksonville Center
07:44PM 29.3261 -81.3394 351° North 427 491 33,200 1,800 Climbing Jacksonville Center
07:45PM 29.4431 -81.3617 351° North 427 491 34,800 1,560 Climbing Jacksonville Center
07:46PM 29.5581 -81.3814 352° North 422 486 36,400 1,620 Climbing Jacksonville Center
07:47PM 29.6753 -81.4033 351° North 422 486 38,100 1,260 Climbing Jacksonville Center
07:48PM 29.7861 -81.4208 352° North 415 478 39,000 420 Climbing Jacksonville Center
07:49PM 29.8972 -81.4431 350° North 404 465 39,000  Level Jacksonville Center
07:50PM 30.0058 -81.4631 351° North 404 465 39,000  Level Jacksonville Center
07:51PM 30.1208 -81.4831 351° North 404 465 39,000  Level Jacksonville Center
07:52PM 30.2297 -81.5031 351° North 404 465 39,000  Level Jacksonville Center
07:53PM 30.3406 -81.5206 352° North 410 472 39,000  Level Jacksonville Center
07:54PM 30.4514 -81.5408 351° North 405 466 39,000  Level Jacksonville Center
07:55PM 30.5581 -81.5633 350° North 399 459 39,000  Level Jacksonville Center
07:56PM 30.6689 -81.5836 351° North 399 459 39,000  Level Jacksonville Center
07:57PM 30.7778 -81.6039 351° North 393 452 39,000  Level Jacksonville Center
07:58PM 30.8886 -81.6242 351° North 393 452 39,000  Level Jacksonville Center
07:59PM 30.9975 -81.6444 351° North 393 452 39,000  Level Jacksonville Center
08:00PM 31.1061 -81.6647 351° North 393 452 39,000  Level Jacksonville Center
08:01PM 31.2214 -81.6875 350° North 393 452 39,000  Level Jacksonville Center
08:02PM 31.3322 -81.7081 351° North 393 452 39,000  Level Jacksonville Center
08:03PM 31.4389 -81.7261 352° North 393 452 39,000  Level Jacksonville Center
08:04PM 31.5600 -81.7514 350° North 393 452 39,000  Level Jacksonville Center
08:05PM 31.6731 -81.7719 351° North 393 452 39,000  Level Jacksonville Center
08:06PM 31.7714 -81.7906 351° North 401 461 39,000  Level Jacksonville Center
08:07PM 31.8967 -81.8158 350° North 406 467 39,000  Level Jacksonville Center
08:08PM 31.9992 -81.8342 351° North 411 473 39,000  Level Jacksonville Center
08:09PM 32.1225 -81.8572 351° North 411 473 39,000  Level Jacksonville Center
08:11PM 32.3711 -81.9067 350° North 395 455 39,000  Level Atlanta Center
08:12PM 32.4839 -81.9236 353° North 395 455 39,000  Level Atlanta Center
08:13PM 32.5950 -81.9456 351° North 395 455 39,000  Level Atlanta Center
08:14PM 32.7061 -81.9678 350° North 400 460 39,000  Level Atlanta Center
08:15PM 32.8211 -81.9897 351° North 405 466 39,000  Level Atlanta Center
08:16PM 32.9322 -82.0119 350° North 410 472 39,000  Level Atlanta Center
08:17PM 33.0453 -82.0339 351° North 410 472 39,000  Level Atlanta Center
08:18PM 33.1625 -82.0561 351° North 415 478 39,000  Level Atlanta Center
08:19PM 33.2714 -82.0786 350° North 409 471 39,000  Level Atlanta Center
08:20PM 33.3867 -82.1008 351° North 409 471 39,000  Level Atlanta Center
08:21PM 33.4975 -82.1206 352° North 409 471 39,000  Level Atlanta Center
08:22PM 33.6125 -82.1431 351° North 409 471 39,000  Level Atlanta Center
08:23PM 33.7172 -82.1558 354° North 415 478 39,000  Level Atlanta Center
08:24PM 33.8400 -82.1356 North 429 494 39,000  Level Atlanta Center
08:25PM 33.9628 -82.1153 North 435 501 39,000  Level Atlanta Center
08:26PM 34.0858 -82.0975 North 441 507 39,000  Level Atlanta Center
08:27PM 34.2128 -82.0744 North 448 516 39,000  Level Atlanta Center
08:28PM 34.3356 -82.0539 North 448 516 39,000  Level Atlanta Center
08:29PM 34.4625 -82.0308 North 448 516 39,000  Level Atlanta Center
08:30PM 34.5872 -82.0078 North 448 516 39,000  Level Atlanta Center
08:31PM 34.7142 -81.9844 North 448 516 39,000  Level Atlanta Center
08:32PM 34.8389 -81.9636 North 448 516 39,000  Level Atlanta Center
08:33PM 34.9639 -81.9428 North 443 510 39,000  Level Atlanta Center
08:34PM 35.0908 -81.9294 North 443 510 39,000  Level Atlanta Center
08:35PM 35.2161 -81.9236 North 443 510 39,000  Level Atlanta Center
08:36PM 35.3411 -81.9178 North 438 504 39,000  Level Atlanta Center
08:37PM 35.4786 -81.9117 North 443 510 39,000  Level Atlanta Center
08:38PM 35.6058 -81.9033 North 443 510 39,000  Level Atlanta Center
08:39PM 35.7331 -81.8975 North 443 510 39,000  Level Atlanta Center
08:40PM 35.8558 -81.8917 North 443 510 39,000  Level Atlanta Center
08:41PM 35.9831 -81.8858 North 443 510 39,000  Level Atlanta Center
08:42PM 36.1039 -81.8800 North 437 503 39,000  Level Atlanta Center
08:43PM 36.2144 -81.8769 North 437 503 39,000  Level Atlanta Center
08:44PM 36.3414 -81.8683 North 443 510 39,000  Level Atlanta Center
08:45PM 36.4706 -81.8625 North 443 510 39,000  Level Atlanta Center
08:46PM 36.6061 -81.8536 North 443 510 39,000  Level Atlanta Center
08:49PM 36.9142 -81.8394 North 454 522 39,000  Level Indianapolis Center
08:50PM 37.0419 -81.8350 North 458 527 39,000  Level Indianapolis Center
08:51PM 37.1661 -81.8414 358° North 450 518 39,000 -480 Level Indianapolis Center
08:52PM 37.2908 -81.8586 354° North 449 517 38,100 -960 Descending Indianapolis Center
08:53PM 37.4164 -81.8756 354° North 452 520 37,100 -1,020 Descending Indianapolis Center
08:54PM 37.5372 -81.8931 353° North 439 505 36,100 -960 Descending Indianapolis Center
08:55PM 37.6603 -81.9108 353° North 444 511 35,200 -1,380 Descending Indianapolis Center
08:56PM 37.8022 -81.9294 354° North 441 507 33,300 -2,100 Descending Indianapolis Center
08:57PM 37.9269 -81.9478 353° North 448 516 31,000 -1,140 Descending Indianapolis Center
08:58PM 38.0494 -81.9661 353° North 445 512 31,000  Level Indianapolis Center
08:59PM 38.1717 -81.9822 354° North 440 506 31,000  Level Indianapolis Center
09:00PM 38.2931 -81.9989 354° North 437 503 31,000  Level Indianapolis Center
09:01PM 38.4167 -82.0172 353° North 441 507 31,000 -60 Level Indianapolis Center
09:02PM 38.5403 -82.0347 354° North 442 509 30,900 -1,080 Descending Indianapolis Center
09:03PM 38.6625 -82.0528 353° North 438 504 28,800 -2,220 Descending Indianapolis Center
09:04PM 38.7808 -82.0706 353° North 427 491 26,500 -2,280 Descending Indianapolis Center
09:05PM 38.8961 -82.0878 353° North 414 476 24,200 -1,800 Descending Indianapolis Center
09:06PM 38.9961 -82.1228 345° North 373 429 22,900 -1,680 Descending Indianapolis Center
09:07PM 39.0928 -82.1614 343° North 362 417 20,900 -1,980 Descending Indianapolis Center
09:08PM 39.1906 -82.2006 343° North 365 420 18,900 -1,920 Descending Indianapolis Center
09:09PM 39.2847 -82.2369 343° North 355 409 17,000 -2,220 Descending Indianapolis Center
09:10PM 39.3522 -82.2572 347° North 362 417 15,600 -2,340 Descending Indianapolis Center
09:10PM 39.4108 -82.2903 336° Northwest 347 399 14,200 -1,980 Descending Indianapolis Center
09:11PM 39.4933 -82.3422 334° Northwest 320 368 12,200 -1,800 Descending Indianapolis Center
09:12PM 39.5611 -82.3978 328° Northwest 320 368 10,800 -1,200 Descending Indianapolis Center
09:13PM 39.6231 -82.4486 328° Northwest 287 330 10,000 -1,080 Descending Indianapolis Center
09:14PM 39.6839 -82.5003 327° Northwest 261 300 8,700 -1,260 Descending Indianapolis Center
09:15PM 39.7397 -82.5469 327° Northwest 257 296 7,600 -1,380 Descending Indianapolis Center
09:16PM 39.7931 -82.5961 325° Northwest 241 277 6,100 -1,500 Descending Indianapolis Center
09:17PM 39.8508 -82.6406 329° Northwest 237 273 4,600 -1,380 Descending Indianapolis Center
09:18PM 39.9044 -82.6869 326° Northwest 262 302 3,400 -780 Descending Indianapolis Center
09:20PM 39.9668 -82.8338 294° West  Level FlightAware Approximate
09:20PM 39.9886 -82.7753 294° West 150 173 2,300  Level Indianapolis Center
09:21PM 39.9897 -82.8189 272° West 112 129 1,700 -720 Descending Indianapolis Center
09:22PM 39.9931 -82.8656 275° West 140 161 1,000 -720 Descending Indianapolis Center
09:24PM 39.9833 -82.8833 294° West  Level FlightAware Approximate